Terminal Aerodrome Forecast
Issued by NWS

Home | Current Version | Previous Version | Text Only | Print | Product List | Glossary On
Versions: 1 2 3 4 5 6 7 8 9 10 11 12 13 14 15 16
433
FTUS45 KRIW 221100
TAFPNA
TAF
KPNA 221126Z 2212/2312 VRB05KT P6SM VCSH SCT025 BKN045
      TEMPO 2212/2215 BKN025
     FM221500 VRB05KT P6SM SCT040 BKN070
     FM222100 11007KT P6SM VCTS SCT030 BKN050CB
     FM230200 16007KT 6SM -SHRA SCT020 BKN035
      AMD LTD TO CLD VIS AND WIND=

USA.gov is the U.S. government's official web portal to all federal, state and local government web resources and services.